Time;durP1;ratioP1;P1;durP2;ratioP2;P2;SDS_P1;SDS_P2;PMS_P1;PMS_P2;Temp;Humidity;BMP_temperature;BMP_pressure;BME280_temperature;BME280_humidity;BME280_pressure;Samples;Min_cycle;Max_cycle;Signal;HPM_P1;HPM_P2
2023/09/09 00:01:52;;;;;;;;;58.25;47.00;;;;;22.92;69.38;101581.38;5010341;28;9712;-68
2023/09/09 00:04:19;;;;;;;;;55.00;44.50;;;;;22.89;69.52;101574.47;5001498;28;9658;-69
2023/09/09 00:06:46;;;;;;;;;57.50;46.75;;;;;22.86;69.74;101579.66;4990269;28;9860;-69
2023/09/09 00:09:14;;;;;;;;;52.25;42.75;;;;;22.84;69.63;101579.91;5010767;28;9792;-69
2023/09/09 00:11:40;;;;;;;;;56.00;45.00;;;;;22.81;69.94;101579.59;5009290;28;9744;-69
2023/09/09 00:14:07;;;;;;;;;53.75;44.00;;;;;22.80;70.09;101580.66;5005358;28;9727;-69
2023/09/09 00:16:34;;;;;;;;;61.00;47.75;;;;;22.77;70.38;101584.78;4995787;28;9858;-69
2023/09/09 00:19:02;;;;;;;;;53.75;44.00;;;;;22.74;70.23;101588.03;5003631;28;9958;-69
2023/09/09 00:21:29;;;;;;;;;55.75;46.75;;;;;22.70;70.27;101584.97;4997012;28;9938;-69
2023/09/09 00:23:56;;;;;;;;;55.25;45.25;;;;;22.68;70.26;101584.38;5010067;28;9779;-69
2023/09/09 00:26:25;;;;;;;;;54.00;46.50;;;;;22.66;70.53;101578.34;5008800;28;9719;-70
2023/09/09 00:28:51;;;;;;;;;57.50;48.00;;;;;22.65;70.56;101587.66;5009021;28;9873;-70
2023/09/09 00:31:18;;;;;;;;;56.75;45.00;;;;;22.62;70.54;101574.44;4988978;28;9904;-71
2023/09/09 00:33:45;;;;;;;;;54.00;45.75;;;;;22.61;70.79;101583.78;5007405;28;9708;-69
2023/09/09 00:36:11;;;;;;;;;58.00;47.75;;;;;22.59;70.76;101588.69;4992467;28;9890;-69
2023/09/09 00:38:38;;;;;;;;;57.75;47.50;;;;;22.58;70.70;101586.19;5011739;28;9835;-69
2023/09/09 00:41:12;;;;;;;;;55.75;47.25;;;;;22.56;70.91;101582.88;4986289;28;9795;-70
2023/09/09 00:43:39;;;;;;;;;56.75;45.75;;;;;22.55;70.90;101586.72;5005578;28;9739;-70
2023/09/09 00:46:08;;;;;;;;;56.00;45.25;;;;;22.51;71.08;101582.81;4985087;28;9481;-70
2023/09/09 00:48:36;;;;;;;;;57.75;46.75;;;;;22.49;70.95;101576.78;4991875;28;9889;-70
2023/09/09 00:51:10;;;;;;;;;51.50;44.75;;;;;22.48;70.94;101577.84;4992255;28;10053;-70
2023/09/09 00:53:37;;;;;;;;;55.25;47.00;;;;;22.46;71.16;101578.09;5009412;28;9550;-70
2023/09/09 00:56:05;;;;;;;;;57.00;46.25;;;;;22.45;71.17;101579.19;5007969;28;9635;-70
2023/09/09 00:58:32;;;;;;;;;55.50;46.50;;;;;22.43;71.25;101578.59;5011829;28;9739;-70
2023/09/09 01:01:02;;;;;;;;;55.50;45.75;;;;;22.42;70.98;101580.53;4995494;28;9634;-70
2023/09/09 01:03:30;;;;;;;;;61.25;46.50;;;;;22.41;70.94;101580.78;4993639;28;9982;-70
2023/09/09 01:05:57;;;;;;;;;54.75;45.75;;;;;22.39;71.10;101577.47;5009646;28;9871;-70
2023/09/09 01:08:28;;;;;;;;;52.00;43.50;;;;;22.36;71.14;101567.84;4992215;28;9952;-70
2023/09/09 01:10:56;;;;;;;;;51.00;44.00;;;;;22.34;71.41;101569.16;5005100;28;9812;-70
2023/09/09 01:13:23;;;;;;;;;55.00;45.75;;;;;22.33;71.37;101568.34;4978477;28;9801;-70
2023/09/09 01:15:50;;;;;;;;;54.00;46.25;;;;;22.32;71.44;101560.34;5005684;28;10049;-70
2023/09/09 01:18:20;;;;;;;;;60.50;51.25;;;;;22.30;71.53;101562.53;4977079;28;9893;-70
2023/09/09 01:20:56;;;;;;;;;56.00;46.75;;;;;22.28;71.48;101572.91;5011663;28;10193;-70
2023/09/09 01:23:24;;;;;;;;;53.50;45.00;;;;;22.26;71.71;101572.34;5008205;28;10126;-70
2023/09/09 01:25:50;;;;;;;;;60.00;48.75;;;;;22.25;71.81;101576.19;4993614;28;9758;-70
2023/09/09 01:28:21;;;;;;;;;52.00;44.00;;;;;22.23;71.85;101573.69;5011333;28;10208;-70
2023/09/09 01:30:49;;;;;;;;;61.25;48.75;;;;;22.23;71.87;101570.94;5008634;28;10342;-70
2023/09/09 01:33:16;;;;;;;;;58.75;48.00;;;;;22.23;71.78;101570.13;5008680;28;9957;-70
2023/09/09 01:35:44;;;;;;;;;62.25;51.50;;;;;22.20;71.69;101572.31;4978883;28;10857;-70
2023/09/09 01:38:10;;;;;;;;;59.75;48.75;;;;;22.17;71.78;101572.81;5010377;28;10402;-70
2023/09/09 01:40:37;;;;;;;;;60.50;50.50;;;;;22.16;71.82;101573.03;5012487;28;10211;-70
2023/09/09 01:43:05;;;;;;;;;61.50;49.50;;;;;22.13;71.81;101574.38;5012987;28;10129;-70
2023/09/09 01:45:31;;;;;;;;;64.75;51.50;;;;;22.11;71.90;101573.75;5001770;28;10231;-70
2023/09/09 01:47:58;;;;;;;;;59.75;49.25;;;;;22.09;71.99;101567.72;4990867;28;11020;-70
2023/09/09 01:50:25;;;;;;;;;61.25;50.50;;;;;22.06;72.02;101567.41;5008941;28;10150;-70
2023/09/09 01:52:52;;;;;;;;;65.50;52.50;;;;;22.05;72.20;101571.22;5009421;28;10300;-70
2023/09/09 01:55:18;;;;;;;;;62.75;51.00;;;;;22.02;72.28;101567.06;5010995;28;10611;-70
2023/09/09 01:57:46;;;;;;;;;61.00;50.00;;;;;22.01;72.60;101567.34;4993674;28;10148;-69
2023/09/09 02:00:14;;;;;;;;;65.50;54.25;;;;;21.98;72.49;101569.47;5007203;28;11116;-69
2023/09/09 02:02:41;;;;;;;;;63.00;51.50;;;;;21.97;72.68;101569.75;5006424;28;10205;-69
2023/09/09 02:05:09;;;;;;;;;66.00;53.25;;;;;21.96;72.52;101565.34;5010667;28;10381;-69
2023/09/09 02:07:36;;;;;;;;;65.75;52.00;;;;;21.93;72.65;101569.41;5010446;28;10310;-69
2023/09/09 02:10:03;;;;;;;;;62.50;50.50;;;;;21.90;72.65;101574.56;4994689;28;10214;-69
2023/09/09 02:12:30;;;;;;;;;61.50;50.75;;;;;21.87;72.50;101569.59;5009019;28;10482;-69
2023/09/09 02:14:56;;;;;;;;;62.25;51.75;;;;;21.83;72.69;101569.25;5011113;28;10212;-69
2023/09/09 02:17:23;;;;;;;;;66.75;54.00;;;;;21.80;72.70;101568.97;5009340;28;10137;-69
2023/09/09 02:19:55;;;;;;;;;65.50;51.50;;;;;21.78;72.59;101571.09;4990791;28;10438;-68
2023/09/09 02:22:22;;;;;;;;;61.50;51.75;;;;;21.74;72.63;101562.56;4993998;28;10377;-69
2023/09/09 02:24:56;;;;;;;;;65.25;54.50;;;;;21.72;72.78;101562.81;5010681;28;10487;-69
2023/09/09 02:27:23;;;;;;;;;67.00;53.25;;;;;21.68;72.89;101553.44;5008577;28;10229;-69
2023/09/09 02:29:50;;;;;;;;;67.25;54.50;;;;;21.64;72.77;101557.75;5010509;28;10246;-69
2023/09/09 02:32:17;;;;;;;;;67.25;55.00;;;;;21.63;73.20;101558.00;5010910;28;10389;-69
2023/09/09 02:34:44;;;;;;;;;65.00;52.25;;;;;21.61;73.06;101554.69;4986649;28;10452;-69
2023/09/09 02:37:19;;;;;;;;;65.00;51.75;;;;;21.59;73.16;101557.69;5005540;28;10317;-69
2023/09/09 02:39:50;;;;;;;;;64.25;53.00;;;;;21.57;73.12;101556.25;5011074;28;10952;-69
2023/09/09 02:42:20;;;;;;;;;63.00;50.25;;;;;21.55;73.21;101561.16;4993219;28;10461;-69
2023/09/09 02:44:51;;;;;;;;;58.25;48.50;;;;;21.52;73.14;101557.03;5009047;28;10237;-69
2023/09/09 02:47:18;;;;;;;;;61.00;50.75;;;;;21.50;73.18;101559.16;5009350;28;10387;-70
2023/09/09 02:49:45;;;;;;;;;62.50;51.00;;;;;21.48;73.33;101551.22;5008291;28;10345;-69
2023/09/09 02:52:13;;;;;;;;;67.75;53.50;;;;;21.45;73.28;101557.19;5004779;28;10324;-69
2023/09/09 02:54:40;;;;;;;;;61.50;51.00;;;;;21.42;73.40;101557.66;5009784;28;10512;-69
2023/09/09 02:57:06;;;;;;;;;65.50;53.00;;;;;21.41;73.40;101556.00;5010758;28;10576;-69
2023/09/09 02:59:36;;;;;;;;;66.25;53.00;;;;;21.40;73.34;101561.75;5007720;28;10351;-69
2023/09/09 03:02:06;;;;;;;;;68.50;54.00;;;;;21.39;73.40;101566.41;4979938;28;10459;-69
2023/09/09 03:04:33;;;;;;;;;63.75;54.00;;;;;21.37;73.37;101564.97;4988894;28;10545;-69
2023/09/09 03:07:00;;;;;;;;;72.25;56.75;;;;;21.36;73.55;101561.41;4997005;28;10388;-69
2023/09/09 03:09:29;;;;;;;;;68.75;56.00;;;;;21.35;73.46;101556.16;5010527;28;10607;-69
2023/09/09 03:11:56;;;;;;;;;66.75;55.25;;;;;21.33;73.58;101550.13;4976628;28;10711;-69
2023/09/09 03:14:24;;;;;;;;;69.50;55.00;;;;;21.31;73.61;101557.72;5009061;28;10732;-69
2023/09/09 03:16:50;;;;;;;;;70.00;57.25;;;;;21.28;73.83;101556.31;4991273;28;10601;-68
2023/09/09 03:19:17;;;;;;;;;64.75;54.00;;;;;21.26;73.86;101555.72;4989732;28;10745;-69
2023/09/09 03:21:43;;;;;;;;;65.75;53.75;;;;;21.26;73.76;101557.63;5007584;28;10931;-69
2023/09/09 03:24:10;;;;;;;;;69.25;56.50;;;;;21.26;73.81;101557.63;5006037;28;10731;-69
2023/09/09 03:26:36;;;;;;;;;75.75;59.50;;;;;21.22;73.70;101555.38;5009950;28;10902;-69
2023/09/09 03:29:03;;;;;;;;;71.25;56.25;;;;;21.19;73.79;101558.66;4973304;28;11111;-69
2023/09/09 03:31:30;;;;;;;;;72.25;58.25;;;;;21.18;73.96;101559.69;4985142;28;10899;-69
2023/09/09 03:33:56;;;;;;;;;76.25;60.00;;;;;21.17;73.89;101557.22;4988549;28;11070;-69
2023/09/09 03:36:23;;;;;;;;;73.50;59.75;;;;;21.17;74.07;101560.78;4991978;28;11215;-70
2023/09/09 03:38:50;;;;;;;;;76.50;59.50;;;;;21.15;74.05;101553.91;4992293;28;11209;-69
2023/09/09 03:41:17;;;;;;;;;73.25;59.00;;;;;21.13;74.10;101559.63;5008499;28;11343;-69
2023/09/09 03:43:43;;;;;;;;;77.00;62.25;;;;;21.12;73.62;101554.41;5008215;28;11111;-69
2023/09/09 03:46:10;;;;;;;;;75.75;60.25;;;;;21.11;74.10;101555.50;5000389;28;11188;-69
2023/09/09 03:48:37;;;;;;;;;80.25;61.25;;;;;21.08;74.06;101550.50;4986520;28;11419;-69
2023/09/09 03:51:03;;;;;;;;;72.50;58.00;;;;;21.06;74.04;101552.63;4978987;28;11295;-69
2023/09/09 03:53:31;;;;;;;;;75.00;60.25;;;;;21.01;73.90;101556.13;4994847;28;10796;-69
2023/09/09 03:56:01;;;;;;;;;77.75;59.75;;;;;20.97;74.10;101560.41;5001371;28;10949;-68
2023/09/09 03:58:27;;;;;;;;;76.00;60.75;;;;;20.96;73.90;101564.25;4972679;28;10935;-69
2023/09/09 04:01:05;;;;;;;;;76.00;61.75;;;;;20.93;74.04;101559.25;4991278;28;11673;-69
2023/09/09 04:03:34;;;;;;;;;75.00;60.25;;;;;20.91;73.93;101561.41;4992559;28;11216;-69
2023/09/09 04:06:05;;;;;;;;;75.00;59.25;;;;;20.89;74.22;101560.81;5000564;28;11031;-70
2023/09/09 04:08:34;;;;;;;;;79.00;62.75;;;;;20.88;74.31;101568.22;5004066;28;11198;-70
2023/09/09 04:11:03;;;;;;;;;77.00;60.25;;;;;20.86;74.18;101562.13;4992817;28;11015;-69
2023/09/09 04:13:30;;;;;;;;;79.00;60.50;;;;;20.84;74.21;101568.94;5000963;28;11189;-70
2023/09/09 04:15:58;;;;;;;;;81.25;63.50;;;;;20.82;74.27;101557.41;5012911;28;11290;-69
2023/09/09 04:18:27;;;;;;;;;82.00;63.75;;;;;20.80;74.43;101565.03;4996569;28;11299;-70
2023/09/09 04:21:12;;;;;;;;;83.75;65.00;;;;;20.77;74.42;101560.88;4993054;28;11905;-70
2023/09/09 04:23:39;;;;;;;;;79.00;62.00;;;;;20.77;74.83;101571.00;5012950;28;11244;-69
2023/09/09 04:26:06;;;;;;;;;77.50;62.00;;;;;20.74;74.51;101570.41;5008644;28;11816;-70
2023/09/09 04:28:33;;;;;;;;;78.75;62.25;;;;;20.72;74.59;101569.81;4980264;28;11384;-70
2023/09/09 04:31:00;;;;;;;;;78.50;62.75;;;;;20.71;74.74;101572.81;4996398;28;11475;-70
2023/09/09 04:33:27;;;;;;;;;84.00;67.00;;;;;20.69;74.61;101575.78;4995741;28;11197;-70
2023/09/09 04:35:54;;;;;;;;;81.00;63.25;;;;;20.64;74.73;101575.69;5006188;28;11613;-70
2023/09/09 04:38:23;;;;;;;;;81.75;63.50;;;;;20.64;74.78;101581.16;4991055;28;11020;-70
2023/09/09 04:40:49;;;;;;;;;75.25;60.25;;;;;20.62;74.76;101576.97;4997769;28;11226;-69
2023/09/09 04:43:17;;;;;;;;;75.25;59.75;;;;;20.60;74.68;101581.88;4998058;28;11184;-68
2023/09/09 04:45:44;;;;;;;;;84.75;61.50;;;;;20.57;74.78;101590.56;5013362;28;12468;-68
2023/09/09 04:48:11;;;;;;;;;75.25;60.50;;;;;20.55;74.75;101579.06;4999892;28;11258;-69
2023/09/09 04:50:37;;;;;;;;;80.50;61.25;;;;;20.53;74.71;101582.00;5024708;28;11018;-69
2023/09/09 04:53:05;;;;;;;;;79.00;60.25;;;;;20.54;74.79;101591.91;4989939;28;11384;-68
2023/09/09 04:55:32;;;;;;;;;78.75;60.50;;;;;20.50;74.72;101593.47;4993812;28;11363;-68
2023/09/09 04:57:59;;;;;;;;;84.00;64.00;;;;;20.49;74.55;101591.78;4990394;28;11585;-68
2023/09/09 05:00:26;;;;;;;;;80.25;62.50;;;;;20.47;74.89;101599.38;5008077;28;11326;-68
2023/09/09 05:02:53;;;;;;;;;80.00;62.75;;;;;20.45;74.78;101591.41;4989823;28;11301;-69
2023/09/09 05:05:19;;;;;;;;;81.00;62.00;;;;;20.44;74.87;101592.47;4991922;28;11366;-69
2023/09/09 05:07:46;;;;;;;;;79.00;60.50;;;;;20.43;74.84;101604.50;4992781;28;11591;-69
2023/09/09 05:10:13;;;;;;;;;81.25;62.00;;;;;20.41;74.96;101597.59;4986006;28;11717;-68
2023/09/09 05:12:40;;;;;;;;;81.50;63.50;;;;;20.39;74.91;101595.09;5004660;28;11175;-69
2023/09/09 05:15:13;;;;;;;;;82.75;65.00;;;;;20.40;75.04;101599.50;5007628;28;11319;-69
2023/09/09 05:17:39;;;;;;;;;80.25;61.75;;;;;20.39;75.13;101602.50;5011532;28;11262;-70
2023/09/09 05:20:07;;;;;;;;;79.75;62.50;;;;;20.38;75.29;101609.84;4995345;28;11148;-70
2023/09/09 05:22:33;;;;;;;;;79.75;61.75;;;;;20.38;75.24;101609.84;5010264;28;11325;-69
2023/09/09 05:25:00;;;;;;;;;82.25;64.50;;;;;20.37;75.34;101605.44;5008261;28;11238;-69
2023/09/09 05:27:26;;;;;;;;;80.50;63.75;;;;;20.37;75.37;101605.44;4992177;28;11804;-69
2023/09/09 05:29:53;;;;;;;;;79.75;63.75;;;;;20.37;75.48;101607.34;4996453;28;11600;-70
2023/09/09 05:32:19;;;;;;;;;84.75;63.00;;;;;20.35;75.21;101606.78;4995240;28;11348;-70
2023/09/09 05:34:46;;;;;;;;;81.75;62.00;;;;;20.37;75.44;101607.34;4991338;28;11609;-70
2023/09/09 05:37:13;;;;;;;;;81.00;62.00;;;;;20.36;75.53;101608.44;4990896;28;11045;-69
2023/09/09 05:39:39;;;;;;;;;76.50;59.00;;;;;20.34;75.46;101605.94;4991670;28;11985;-70
2023/09/09 05:42:06;;;;;;;;;78.25;61.00;;;;;20.32;75.42;101602.59;4986212;28;11199;-70
2023/09/09 05:44:36;;;;;;;;;76.25;61.75;;;;;20.31;75.38;101602.84;4995028;28;12159;-70
2023/09/09 05:47:05;;;;;;;;;84.00;64.25;;;;;20.29;75.58;101596.78;4991057;28;11039;-69
2023/09/09 05:49:32;;;;;;;;;80.50;63.00;;;;;20.30;75.73;101603.94;4990848;28;11980;-69
2023/09/09 05:52:07;;;;;;;;;76.75;59.50;;;;;20.31;75.91;101602.84;4984379;28;11188;-69
2023/09/09 05:54:34;;;;;;;;;75.50;57.50;;;;;20.32;75.72;101610.81;5006263;28;11198;-69
2023/09/09 05:57:02;;;;;;;;;79.75;61.00;;;;;20.34;75.88;101605.13;5002884;28;11374;-70
2023/09/09 05:59:29;;;;;;;;;77.00;61.00;;;;;20.35;76.15;101612.25;4994839;28;11261;-70
2023/09/09 06:01:56;;;;;;;;;75.50;60.75;;;;;20.37;75.98;101613.66;5007801;28;10952;-70
2023/09/09 06:04:22;;;;;;;;;79.50;62.00;;;;;20.39;76.10;101613.44;5010082;28;10949;-69
2023/09/09 06:06:49;;;;;;;;;76.25;60.25;;;;;20.39;76.17;101621.63;4991186;28;11112;-69
2023/09/09 06:09:16;;;;;;;;;73.25;56.25;;;;;20.42;76.36;101629.34;4993591;28;11011;-70
2023/09/09 06:11:43;;;;;;;;;73.00;57.50;;;;;20.44;76.47;101633.50;4993480;28;10633;-69
2023/09/09 06:14:10;;;;;;;;;70.75;55.50;;;;;20.47;76.67;101626.72;5006058;28;10721;-69
2023/09/09 06:16:37;;;;;;;;;61.25;49.25;;;;;20.49;76.63;101628.16;5005871;28;10581;-69
2023/09/09 06:19:04;;;;;;;;;77.00;59.50;;;;;20.53;76.76;101625.78;4974241;28;10378;-67
2023/09/09 06:21:30;;;;;;;;;83.75;66.25;;;;;20.63;77.03;101630.66;5015687;28;10936;-68
2023/09/09 06:23:58;;;;;;;;;92.00;73.75;;;;;20.80;76.81;101630.72;5008142;28;11676;-67
2023/09/09 06:26:30;;;;;;;;;87.50;70.25;;;;;20.92;76.30;101629.59;4977780;28;11594;-68
2023/09/09 06:28:56;;;;;;;;;83.25;63.50;;;;;21.07;75.69;101628.22;4995042;28;12358;-68
2023/09/09 06:31:23;;;;;;;;;81.75;64.00;;;;;21.20;75.46;101634.22;4994433;28;12347;-68
2023/09/09 06:33:50;;;;;;;;;77.75;60.50;;;;;21.29;74.33;101640.13;5010327;28;11571;-70
2023/09/09 06:36:20;;;;;;;;;72.00;55.25;;;;;21.29;74.14;101642.03;5009082;28;10945;-70
2023/09/09 06:38:46;;;;;;;;;74.50;58.50;;;;;21.24;74.49;101643.63;5007682;28;10803;-69
2023/09/09 06:41:13;;;;;;;;;69.50;54.00;;;;;21.17;74.69;101648.41;5010190;28;10684;-69
2023/09/09 06:43:39;;;;;;;;;70.00;54.75;;;;;21.15;74.89;101650.56;5010065;28;10326;-68
2023/09/09 06:46:06;;;;;;;;;60.25;49.50;;;;;21.12;75.43;101650.22;5006969;28;10462;-69
2023/09/09 06:48:32;;;;;;;;;68.50;54.25;;;;;21.09;75.13;101656.19;4989061;28;10403;-70
2023/09/09 06:50:59;;;;;;;;;59.75;46.50;;;;;21.06;75.67;101649.28;5000016;28;10382;-69
2023/09/09 06:53:26;;;;;;;;;63.75;51.25;;;;;21.04;75.77;101648.69;5007854;28;10988;-70
2023/09/09 06:55:52;;;;;;;;;62.25;49.50;;;;;21.03;75.84;101649.78;5007782;28;10195;-70
2023/09/09 06:58:19;;;;;;;;;67.25;53.25;;;;;21.04;75.98;101662.38;5008681;28;10060;-69
2023/09/09 07:00:50;;;;;;;;;73.00;58.50;;;;;21.02;75.77;101659.06;5006241;28;10572;-69
2023/09/09 07:03:18;;;;;;;;;77.00;59.25;;;;;21.02;76.06;101658.22;5007005;28;11386;-69
2023/09/09 07:05:45;;;;;;;;;58.00;49.25;;;;;21.02;76.23;101659.06;5010615;28;11107;-69
2023/09/09 07:08:11;;;;;;;;;65.50;54.75;;;;;21.04;76.46;101653.34;5005271;28;10291;-66
2023/09/09 07:10:38;;;;;;;;;64.25;50.50;;;;;21.09;76.46;101659.75;5012668;28;10332;-70
2023/09/09 07:13:04;;;;;;;;;58.50;48.00;;;;;21.13;76.35;101658.19;5029802;28;10246;-70
2023/09/09 07:15:34;;;;;;;;;55.50;44.25;;;;;21.18;76.11;101662.91;5029642;28;9968;-70
2023/09/09 07:18:01;;;;;;;;;60.75;50.75;;;;;21.19;76.17;101667.34;4991733;28;9967;-69
2023/09/09 07:20:27;;;;;;;;;59.00;48.00;;;;;21.21;76.02;101671.47;4987028;28;10400;-70
2023/09/09 07:22:54;;;;;;;;;48.25;41.50;;;;;21.21;75.84;101670.66;4991035;28;10642;-69
2023/09/09 07:25:20;;;;;;;;;55.75;46.50;;;;;21.23;76.09;101674.00;4991153;28;9603;-70
2023/09/09 07:27:47;;;;;;;;;59.25;49.50;;;;;21.25;75.92;101674.56;5010724;28;9789;-70
2023/09/09 07:30:13;;;;;;;;;63.75;49.50;;;;;21.27;76.12;101677.91;4993141;28;9955;-70
2023/09/09 07:32:40;;;;;;;;;58.50;49.00;;;;;21.29;75.85;101681.22;5009882;28;10080;-68
2023/09/09 07:35:07;;;;;;;;;52.00;42.75;;;;;21.29;75.95;101677.63;5008723;28;10281;-69
2023/09/09 07:37:33;;;;;;;;;48.00;41.00;;;;;21.30;76.12;101679.28;5006293;28;9630;-69
2023/09/09 07:40:00;;;;;;;;;46.00;39.00;;;;;21.33;75.93;101678.84;4984990;28;9681;-68
2023/09/09 07:42:26;;;;;;;;;50.50;42.25;;;;;21.37;75.97;101680.00;5010313;28;9582;-69
2023/09/09 07:44:53;;;;;;;;;59.25;50.50;;;;;21.39;75.61;101681.44;5010366;28;9882;-68
2023/09/09 07:47:20;;;;;;;;;58.00;46.00;;;;;21.43;75.51;101679.00;5009061;28;10041;-68
2023/09/09 07:49:47;;;;;;;;;62.50;50.00;;;;;21.45;75.43;101682.34;5006925;28;10860;-69
2023/09/09 07:52:14;;;;;;;;;49.25;40.50;;;;;21.49;75.31;101691.75;5007555;28;9800;-69
2023/09/09 07:54:40;;;;;;;;;39.67;36.33;;;;;21.51;74.95;101688.75;4991335;28;9502;-70
2023/09/09 07:57:07;;;;;;;;;48.75;39.25;;;;;21.51;75.23;101686.84;5002784;28;9313;-70
2023/09/09 07:59:33;;;;;;;;;47.25;40.50;;;;;21.54;75.10;101686.34;5010272;28;9477;-70
2023/09/09 08:02:02;;;;;;;;;43.00;38.25;;;;;21.57;74.76;101685.88;5006067;28;9596;-69
2023/09/09 08:04:29;;;;;;;;;43.25;38.00;;;;;21.62;74.40;101683.19;4990648;28;9566;-72
2023/09/09 08:06:56;;;;;;;;;40.33;36.67;;;;;21.66;74.24;101680.81;5008761;28;9420;-71
2023/09/09 08:09:22;;;;;;;;;44.75;38.00;;;;;21.70;74.06;101688.28;4988275;28;9332;-70
2023/09/09 08:11:49;;;;;;;;;35.33;34.33;;;;;21.75;73.92;101689.44;5005545;28;9498;-70
2023/09/09 08:14:17;;;;;;;;;37.50;35.25;;;;;21.78;73.86;101686.22;5009839;28;9089;-69
2023/09/09 08:16:44;;;;;;;;;34.67;31.33;;;;;21.83;73.66;101686.28;4990908;28;8868;-69
2023/09/09 08:19:11;;;;;;;;;31.75;30.00;;;;;21.87;73.49;101688.28;5010060;28;9026;-71
2023/09/09 08:21:38;;;;;;;;;36.50;33.75;;;;;21.93;73.12;101694.69;5009256;28;8925;-68
2023/09/09 08:24:04;;;;;;;;;38.33;32.67;;;;;21.95;72.89;101692.53;5008571;28;8910;-69
2023/09/09 08:26:31;;;;;;;;;29.33;29.33;;;;;22.00;72.65;101689.88;5008427;28;8931;-69
2023/09/09 08:28:58;;;;;;;;;37.00;33.75;;;;;22.02;72.46;101692.38;5009013;28;9015;-70
2023/09/09 08:31:24;;;;;;;;;33.33;30.67;;;;;22.09;72.43;101693.03;5009251;28;8863;-70
2023/09/09 08:33:51;;;;;;;;;43.67;38.00;;;;;22.11;72.06;101691.69;4995873;28;9122;-69
2023/09/09 08:36:18;;;;;;;;;48.75;42.00;;;;;22.15;72.16;101698.34;5011762;28;9024;-70
2023/09/09 08:38:44;;;;;;;;;55.00;44.50;;;;;22.19;72.38;101698.69;5013193;28;9910;-69
2023/09/09 08:41:21;;;;;;;;;65.00;53.75;;;;;22.17;72.01;101703.59;5009584;28;9700;-70
2023/09/09 08:43:59;;;;;;;;;45.33;39.33;;;;;22.21;72.11;101697.38;5014582;28;10289;-71
2023/09/09 08:46:25;;;;;;;;;36.00;31.50;;;;;22.28;72.01;101707.31;5005354;28;9173;-68
2023/09/09 08:48:52;;;;;;;;;30.75;28.50;;;;;22.35;71.92;101707.97;4998009;28;8847;-69
2023/09/09 08:51:28;;;;;;;;;38.25;34.50;;;;;22.40;71.75;101702.56;4991586;28;9639;-69
2023/09/09 08:53:56;;;;;;;;;30.00;29.00;;;;;22.46;71.78;101698.81;5017562;28;8829;-70
2023/09/09 08:56:23;;;;;;;;;42.33;37.00;;;;;22.50;71.61;101702.72;5004666;28;8957;-69
2023/09/09 08:58:49;;;;;;;;;36.75;31.00;;;;;22.53;71.43;101704.97;5007915;28;9028;-69
2023/09/09 09:01:17;;;;;;;;;55.00;46.50;;;;;22.54;71.26;101700.31;5001743;28;8860;-69
2023/09/09 09:03:45;;;;;;;;;39.00;35.33;;;;;22.59;70.93;101695.69;4996202;28;10191;-69
2023/09/09 09:06:12;;;;;;;;;27.75;27.50;;;;;22.68;71.00;101696.09;4995295;28;9272;-69
2023/09/09 09:08:39;;;;;;;;;39.33;34.33;;;;;22.77;71.13;101704.69;5013288;28;8825;-70
2023/09/09 09:11:07;;;;;;;;;43.75;37.75;;;;;22.80;70.31;101698.72;4995186;28;9193;-70
2023/09/09 09:13:34;;;;;;;;;37.33;35.67;;;;;22.86;69.73;101706.78;5004617;28;9627;-69
2023/09/09 09:16:01;;;;;;;;;33.50;32.75;;;;;22.94;69.64;101709.09;5007590;28;8948;-68
2023/09/09 09:18:28;;;;;;;;;31.25;31.25;;;;;22.99;69.18;101718.47;4992500;28;8887;-69
2023/09/09 09:21:09;;;;;;;;;24.50;24.00;;;;;23.05;69.08;101717.44;5016721;28;8837;-70
2023/09/09 09:23:46;;;;;;;;;27.50;26.25;;;;;23.07;68.95;101716.09;5011699;28;8844;-69
2023/09/09 09:26:24;;;;;;;;;24.00;21.75;;;;;23.08;68.71;101717.75;5005541;28;8997;-70
2023/09/09 09:28:51;;;;;;;;;25.75;24.00;;;;;23.12;68.38;101726.31;4988952;28;8832;-70
2023/09/09 09:31:22;;;;;;;;;25.25;23.00;;;;;23.17;68.28;101727.22;5012304;28;9020;-70
2023/09/09 09:33:52;;;;;;;;;25.50;25.25;;;;;23.20;68.04;101721.19;5010612;28;8926;-69
2023/09/09 09:36:20;;;;;;;;;27.50;25.75;;;;;23.20;67.81;101720.38;5012581;28;8832;-70
2023/09/09 09:38:48;;;;;;;;;32.25;29.00;;;;;23.24;67.95;101723.44;5012664;28;8878;-69
2023/09/09 09:41:17;;;;;;;;;28.00;27.00;;;;;23.29;68.22;101720.75;5015769;28;8866;-69
2023/09/09 09:43:48;;;;;;;;;26.75;23.25;;;;;23.35;68.24;101716.97;5009114;28;8849;-69
2023/09/09 09:46:22;;;;;;;;;47.33;39.00;;;;;23.42;68.43;101725.84;5012186;28;8865;-70
2023/09/09 09:48:49;;;;;;;;;32.50;30.00;;;;;23.48;68.15;101724.81;5012161;28;9407;-69
2023/09/09 09:51:16;;;;;;;;;31.25;31.25;;;;;23.54;68.08;101723.78;4994010;28;9550;-69
2023/09/09 09:53:48;;;;;;;;;32.25;30.75;;;;;23.59;66.80;101726.56;4994638;28;8860;-70
2023/09/09 09:56:15;;;;;;;;;35.25;34.00;;;;;23.65;66.14;101725.53;4990710;28;8922;-69
2023/09/09 09:58:49;;;;;;;;;23.25;23.00;;;;;23.69;65.72;101726.69;5004530;28;8854;-69
2023/09/09 10:01:16;;;;;;;;;24.75;22.75;;;;;23.71;65.46;101731.13;5010788;28;8864;-69
2023/09/09 10:03:47;;;;;;;;;21.25;20.00;;;;;23.73;64.90;101723.41;5011382;28;8832;-70
2023/09/09 10:06:21;;;;;;;;;20.50;18.75;;;;;23.78;64.35;101728.97;5010295;28;9589;-69
2023/09/09 10:09:00;;;;;;;;;32.00;29.75;;;;;23.85;63.86;101719.41;5009446;28;8860;-70
2023/09/09 10:11:31;;;;;;;;;26.75;25.75;;;;;23.85;63.88;101724.91;5012818;28;8849;-71
2023/09/09 10:14:16;;;;;;;;;26.50;26.00;;;;;23.86;63.90;101722.97;4977003;28;8864;-70
2023/09/09 10:16:44;;;;;;;;;25.00;25.00;;;;;23.89;63.86;101711.47;4993281;28;8883;-69
2023/09/09 10:19:13;;;;;;;;;23.00;23.00;;;;;23.96;63.08;101717.59;5011219;28;9899;-70
2023/09/09 10:21:42;;;;;;;;;14.00;13.25;;;;;24.02;62.92;101718.44;5008922;28;8852;-69
2023/09/09 10:24:09;;;;;;;;;17.25;17.00;;;;;24.03;62.81;101722.88;4991287;28;8862;-69
2023/09/09 10:26:37;;;;;;;;;21.25;19.75;;;;;24.08;62.04;101720.97;5007934;28;9603;-69
2023/09/09 10:29:05;;;;;;;;;21.25;21.25;;;;;24.14;62.17;101719.09;4987883;28;8864;-69
2023/09/09 10:31:34;;;;;;;;;35.50;33.75;;;;;24.23;61.90;101711.19;5010101;28;8879;-68
2023/09/09 10:34:02;;;;;;;;;19.25;18.75;;;;;24.25;61.48;101714.50;5011281;28;8836;-70
2023/09/09 10:36:35;;;;;;;;;18.25;18.25;;;;;24.20;61.85;101706.22;4995812;28;8843;-70
2023/09/09 10:39:21;;;;;;;;;17.00;17.00;;;;;24.19;61.46;101710.88;5010231;28;8856;-69
2023/09/09 10:41:49;;;;;;;;;24.00;24.00;;;;;24.21;61.51;101705.94;5011827;28;8856;-69
2023/09/09 10:44:15;;;;;;;;;24.00;23.25;;;;;24.26;62.31;101705.13;5001127;28;8851;-69
2023/09/09 10:46:42;;;;;;;;;22.25;20.00;;;;;24.28;63.25;101706.53;5004273;28;8844;-70
2023/09/09 10:49:14;;;;;;;;;44.33;37.67;;;;;24.38;63.96;101708.56;5011573;28;8852;-69
2023/09/09 10:51:45;;;;;;;;;35.00;33.00;;;;;24.45;63.94;101708.31;5011076;28;9803;-69
2023/09/09 10:54:18;;;;;;;;;46.00;39.00;;;;;24.49;63.09;101704.78;4999066;28;8850;-68
2023/09/09 10:56:53;;;;;;;;;51.67;41.33;;;;;24.54;62.56;101702.03;5006140;28;9022;-69
2023/09/09 10:59:29;;;;;;;;;36.00;35.00;;;;;24.58;62.64;101707.84;5008798;28;9181;-69
2023/09/09 11:02:23;;;;;;;;;25.25;24.25;;;;;24.59;62.78;101704.84;5018547;28;8944;-69
2023/09/09 11:05:01;;;;;;;;;29.00;28.50;;;;;24.55;63.05;101708.38;4971749;28;9002;-69
2023/09/09 11:07:42;;;;;;;;;29.75;29.75;;;;;24.52;63.44;101707.00;4990675;28;9573;-71
2023/09/09 11:10:09;;;;;;;;;32.25;31.75;;;;;24.52;63.05;101698.75;5001249;28;8829;-70
2023/09/09 11:12:37;;;;;;;;;37.75;33.00;;;;;24.59;62.54;101696.59;5014146;28;8848;-70
2023/09/09 11:15:08;;;;;;;;;25.50;25.00;;;;;24.66;62.32;101702.66;5013106;28;8885;-70
2023/09/09 11:17:36;;;;;;;;;23.25;20.75;;;;;24.73;62.11;101696.09;5007803;28;8947;-70